Teslin, Canada
Current Conditions -  °F | °C
As of 7:00 AM on Wednesday 22 Oct 2014 (Local Time) from CYXY Reporting Station
Light Snow Light Snow  
Wind Chill: 34°   Ceiling: 2300
Heat Index: 34°   Visibility: 3mi
Dew Point: 32°   Wind: 0mph
Humidity: 93%   Direction: NA
Pressure: 29.27"   Gusts: NA
Location:  60.17°N, 132.72°W
Report Text: CYXY 221400Z 00000KT 3SM -SN FEW005 SCT013 BKN023 OVC041 01/00 A2927 RMK SF2ST2SC3SC1 SLP942
Loading
Personal Weather Stations






























Interactive Weather Map
Tropical Storm Tracking
New forecast layout! Learn more

10-Day Weather Forecast

Advertisements
Track Severe Weather on mobile